Arlington, Oregon
Current Conditions -  °F | °C
As of 3:53 AM on Monday 20 Oct 2014 (Local Time) from KHRI Reporting Station
Clear Clear  
Wind Chill: 38°   Ceiling: Unl
Heat Index: 42°   Visibility: 10mi
Dew Point: 41°   Wind: 6mph
Humidity: 96%   Direction: 190°S
Pressure: 29.72"   Gusts: NA
Location:  45.72°N, 120.2°W
Report Text: KHRI 201053Z AUTO 19005KT 10SM CLR 06/05 A2972 RMK AO2 SLP063 T00560050
Loading
Personal Weather Stations






























Interactive Weather Map New forecast layout! Learn more

10-Day Weather Forecast

Advertisements
Track Severe Weather on mobile